sensor_id;sensor_type;location;lat;lon;timestamp;P1;durP1;ratioP1;P2;durP2;ratioP2
18228;SDS011;9239;50.932;3.142;2023-02-15T00:01:29;72.53;;;52.53;;
18228;SDS011;9239;50.932;3.142;2023-02-15T00:03:56;69.77;;;52.80;;
18228;SDS011;9239;50.932;3.142;2023-02-15T00:06:25;82.03;;;54.03;;
18228;SDS011;9239;50.932;3.142;2023-02-15T00:08:53;76.20;;;52.93;;
18228;SDS011;9239;50.932;3.142;2023-02-15T00:11:20;73.87;;;54.77;;
18228;SDS011;9239;50.932;3.142;2023-02-15T00:14:01;75.97;;;55.20;;
18228;SDS011;9239;50.932;3.142;2023-02-15T00:16:28;74.73;;;51.67;;
18228;SDS011;9239;50.932;3.142;2023-02-15T00:18:55;72.23;;;51.90;;
18228;SDS011;9239;50.932;3.142;2023-02-15T00:21:21;77.30;;;54.17;;
18228;SDS011;9239;50.932;3.142;2023-02-15T00:23:50;84.70;;;56.53;;
18228;SDS011;9239;50.932;3.142;2023-02-15T00:26:16;80.33;;;56.80;;
18228;SDS011;9239;50.932;3.142;2023-02-15T00:28:43;71.30;;;52.53;;
18228;SDS011;9239;50.932;3.142;2023-02-15T00:31:11;75.43;;;53.60;;
18228;SDS011;9239;50.932;3.142;2023-02-15T00:33:38;71.57;;;52.77;;
18228;SDS011;9239;50.932;3.142;2023-02-15T00:36:06;67.77;;;50.10;;
18228;SDS011;9239;50.932;3.142;2023-02-15T00:38:34;71.80;;;50.57;;
18228;SDS011;9239;50.932;3.142;2023-02-15T00:41:03;74.50;;;53.27;;
18228;SDS011;9239;50.932;3.142;2023-02-15T00:43:32;78.20;;;52.50;;
18228;SDS011;9239;50.932;3.142;2023-02-15T00:46:00;76.50;;;53.53;;
18228;SDS011;9239;50.932;3.142;2023-02-15T00:48:27;77.60;;;53.70;;
18228;SDS011;9239;50.932;3.142;2023-02-15T00:50:55;74.70;;;51.70;;
18228;SDS011;9239;50.932;3.142;2023-02-15T00:53:23;76.33;;;52.87;;
18228;SDS011;9239;50.932;3.142;2023-02-15T00:55:51;79.77;;;54.03;;
18228;SDS011;9239;50.932;3.142;2023-02-15T00:58:19;70.83;;;52.13;;
18228;SDS011;9239;50.932;3.142;2023-02-15T01:00:47;77.10;;;52.37;;
18228;SDS011;9239;50.932;3.142;2023-02-15T01:03:15;77.83;;;55.37;;
18228;SDS011;9239;50.932;3.142;2023-02-15T01:05:43;75.03;;;53.40;;
18228;SDS011;9239;50.932;3.142;2023-02-15T01:08:10;79.77;;;55.23;;
18228;SDS011;9239;50.932;3.142;2023-02-15T01:10:36;77.17;;;54.67;;
18228;SDS011;9239;50.932;3.142;2023-02-15T01:13:04;70.30;;;52.77;;
18228;SDS011;9239;50.932;3.142;2023-02-15T01:15:33;77.63;;;53.90;;
18228;SDS011;9239;50.932;3.142;2023-02-15T01:18:00;78.33;;;53.00;;
18228;SDS011;9239;50.932;3.142;2023-02-15T01:20:28;79.13;;;53.80;;
18228;SDS011;9239;50.932;3.142;2023-02-15T01:22:56;74.90;;;52.13;;
18228;SDS011;9239;50.932;3.142;2023-02-15T01:25:23;76.97;;;52.90;;
18228;SDS011;9239;50.932;3.142;2023-02-15T01:27:51;75.77;;;53.53;;
18228;SDS011;9239;50.932;3.142;2023-02-15T01:30:18;77.80;;;52.30;;
18228;SDS011;9239;50.932;3.142;2023-02-15T01:32:46;73.57;;;52.13;;
18228;SDS011;9239;50.932;3.142;2023-02-15T01:35:13;82.10;;;53.63;;
18228;SDS011;9239;50.932;3.142;2023-02-15T01:37:40;72.17;;;52.63;;
18228;SDS011;9239;50.932;3.142;2023-02-15T01:40:07;76.70;;;51.30;;
18228;SDS011;9239;50.932;3.142;2023-02-15T01:42:37;78.53;;;54.07;;
18228;SDS011;9239;50.932;3.142;2023-02-15T01:45:05;73.93;;;53.07;;
18228;SDS011;9239;50.932;3.142;2023-02-15T01:47:48;76.67;;;54.67;;
18228;SDS011;9239;50.932;3.142;2023-02-15T01:50:19;72.93;;;51.97;;
18228;SDS011;9239;50.932;3.142;2023-02-15T01:52:51;74.17;;;51.30;;
18228;SDS011;9239;50.932;3.142;2023-02-15T01:55:22;77.30;;;53.27;;
18228;SDS011;9239;50.932;3.142;2023-02-15T01:57:51;77.00;;;54.07;;
18228;SDS011;9239;50.932;3.142;2023-02-15T02:00:18;72.57;;;53.00;;
18228;SDS011;9239;50.932;3.142;2023-02-15T02:02:48;77.53;;;56.00;;
18228;SDS011;9239;50.932;3.142;2023-02-15T02:05:17;73.13;;;52.23;;
18228;SDS011;9239;50.932;3.142;2023-02-15T02:07:44;76.77;;;52.37;;
18228;SDS011;9239;50.932;3.142;2023-02-15T02:10:13;73.63;;;51.70;;
18228;SDS011;9239;50.932;3.142;2023-02-15T02:12:42;78.30;;;53.13;;
18228;SDS011;9239;50.932;3.142;2023-02-15T02:15:11;75.27;;;52.47;;
18228;SDS011;9239;50.932;3.142;2023-02-15T02:17:42;75.97;;;53.33;;
18228;SDS011;9239;50.932;3.142;2023-02-15T02:20:26;76.13;;;51.93;;
18228;SDS011;9239;50.932;3.142;2023-02-15T02:23:12;80.17;;;53.90;;
18228;SDS011;9239;50.932;3.142;2023-02-15T02:29:05;78.40;;;52.03;;
18228;SDS011;9239;50.932;3.142;2023-02-15T02:35:07;66.93;;;48.10;;
18228;SDS011;9239;50.932;3.142;2023-02-15T02:37:42;75.27;;;51.93;;
18228;SDS011;9239;50.932;3.142;2023-02-15T02:40:19;72.53;;;50.37;;
18228;SDS011;9239;50.932;3.142;2023-02-15T02:42:53;75.97;;;52.60;;
18228;SDS011;9239;50.932;3.142;2023-02-15T02:45:26;84.80;;;53.03;;
18228;SDS011;9239;50.932;3.142;2023-02-15T02:47:59;73.30;;;51.90;;
18228;SDS011;9239;50.932;3.142;2023-02-15T02:50:31;79.23;;;54.27;;
18228;SDS011;9239;50.932;3.142;2023-02-15T02:52:58;70.03;;;51.33;;
18228;SDS011;9239;50.932;3.142;2023-02-15T02:55:27;77.73;;;52.23;;
18228;SDS011;9239;50.932;3.142;2023-02-15T02:57:57;77.17;;;50.80;;
18228;SDS011;9239;50.932;3.142;2023-02-15T03:00:31;70.90;;;50.87;;
18228;SDS011;9239;50.932;3.142;2023-02-15T03:03:02;75.93;;;53.47;;
18228;SDS011;9239;50.932;3.142;2023-02-15T03:05:34;79.27;;;53.13;;
18228;SDS011;9239;50.932;3.142;2023-02-15T03:08:05;79.90;;;52.43;;
18228;SDS011;9239;50.932;3.142;2023-02-15T03:10:34;78.67;;;52.70;;
18228;SDS011;9239;50.932;3.142;2023-02-15T03:13:03;75.60;;;51.53;;
18228;SDS011;9239;50.932;3.142;2023-02-15T03:15:31;72.47;;;51.70;;
18228;SDS011;9239;50.932;3.142;2023-02-15T03:18:13;81.57;;;54.10;;
18228;SDS011;9239;50.932;3.142;2023-02-15T03:20:43;77.00;;;53.10;;
18228;SDS011;9239;50.932;3.142;2023-02-15T03:23:11;78.20;;;54.33;;
18228;SDS011;9239;50.932;3.142;2023-02-15T03:25:43;74.30;;;52.20;;
18228;SDS011;9239;50.932;3.142;2023-02-15T03:28:15;75.30;;;52.37;;
18228;SDS011;9239;50.932;3.142;2023-02-15T03:30:47;76.07;;;52.37;;
18228;SDS011;9239;50.932;3.142;2023-02-15T03:33:19;76.93;;;55.27;;
18228;SDS011;9239;50.932;3.142;2023-02-15T03:35:52;81.53;;;53.70;;
18228;SDS011;9239;50.932;3.142;2023-02-15T03:41:10;79.97;;;55.47;;
18228;SDS011;9239;50.932;3.142;2023-02-15T03:43:40;79.23;;;52.90;;
18228;SDS011;9239;50.932;3.142;2023-02-15T03:46:15;80.03;;;53.20;;
18228;SDS011;9239;50.932;3.142;2023-02-15T03:48:49;73.70;;;52.40;;
18228;SDS011;9239;50.932;3.142;2023-02-15T03:51:21;80.67;;;53.27;;
18228;SDS011;9239;50.932;3.142;2023-02-15T03:54:04;80.47;;;52.93;;
18228;SDS011;9239;50.932;3.142;2023-02-15T03:56:34;77.40;;;49.80;;
18228;SDS011;9239;50.932;3.142;2023-02-15T03:59:03;77.43;;;52.40;;
18228;SDS011;9239;50.932;3.142;2023-02-15T04:01:50;75.83;;;52.60;;
18228;SDS011;9239;50.932;3.142;2023-02-15T04:04:27;75.33;;;52.20;;
18228;SDS011;9239;50.932;3.142;2023-02-15T04:07:00;83.07;;;53.27;;
18228;SDS011;9239;50.932;3.142;2023-02-15T04:09:27;75.57;;;51.67;;
18228;SDS011;9239;50.932;3.142;2023-02-15T04:12:11;79.30;;;52.67;;
18228;SDS011;9239;50.932;3.142;2023-02-15T04:14:38;74.33;;;50.27;;
18228;SDS011;9239;50.932;3.142;2023-02-15T04:17:23;76.07;;;52.00;;
18228;SDS011;9239;50.932;3.142;2023-02-15T04:19:49;72.37;;;50.40;;
18228;SDS011;9239;50.932;3.142;2023-02-15T04:22:35;77.00;;;50.67;;
18228;SDS011;9239;50.932;3.142;2023-02-15T04:25:19;71.73;;;48.77;;
18228;SDS011;9239;50.932;3.142;2023-02-15T04:27:47;72.83;;;51.17;;
18228;SDS011;9239;50.932;3.142;2023-02-15T04:30:15;70.30;;;50.03;;
18228;SDS011;9239;50.932;3.142;2023-02-15T04:32:44;77.00;;;49.83;;
18228;SDS011;9239;50.932;3.142;2023-02-15T04:35:11;69.13;;;50.47;;
18228;SDS011;9239;50.932;3.142;2023-02-15T04:37:40;74.20;;;50.67;;
18228;SDS011;9239;50.932;3.142;2023-02-15T04:40:08;76.80;;;51.30;;
18228;SDS011;9239;50.932;3.142;2023-02-15T04:42:38;76.40;;;50.37;;
18228;SDS011;9239;50.932;3.142;2023-02-15T04:45:05;71.07;;;48.20;;
18228;SDS011;9239;50.932;3.142;2023-02-15T04:47:33;79.30;;;52.33;;
18228;SDS011;9239;50.932;3.142;2023-02-15T04:50:00;80.37;;;53.13;;
18228;SDS011;9239;50.932;3.142;2023-02-15T04:52:27;82.93;;;53.57;;
18228;SDS011;9239;50.932;3.142;2023-02-15T04:54:55;84.67;;;54.33;;
18228;SDS011;9239;50.932;3.142;2023-02-15T04:57:22;78.47;;;53.10;;
18228;SDS011;9239;50.932;3.142;2023-02-15T04:59:49;78.90;;;52.43;;
18228;SDS011;9239;50.932;3.142;2023-02-15T05:02:16;77.50;;;51.50;;
18228;SDS011;9239;50.932;3.142;2023-02-15T05:04:43;78.63;;;50.53;;
18228;SDS011;9239;50.932;3.142;2023-02-15T05:07:10;78.60;;;51.43;;
18228;SDS011;9239;50.932;3.142;2023-02-15T05:09:37;75.40;;;49.93;;
18228;SDS011;9239;50.932;3.142;2023-02-15T05:12:05;74.23;;;50.60;;
18228;SDS011;9239;50.932;3.142;2023-02-15T05:14:32;71.47;;;50.03;;
18228;SDS011;9239;50.932;3.142;2023-02-15T05:16:59;74.30;;;51.30;;
18228;SDS011;9239;50.932;3.142;2023-02-15T05:19:28;77.70;;;49.13;;
18228;SDS011;9239;50.932;3.142;2023-02-15T05:21:55;78.13;;;51.27;;
18228;SDS011;9239;50.932;3.142;2023-02-15T05:24:22;74.43;;;49.60;;
18228;SDS011;9239;50.932;3.142;2023-02-15T05:27:08;73.80;;;50.73;;
18228;SDS011;9239;50.932;3.142;2023-02-15T05:29:54;74.27;;;49.33;;
18228;SDS011;9239;50.932;3.142;2023-02-15T05:32:21;77.37;;;51.07;;
18228;SDS011;9239;50.932;3.142;2023-02-15T05:34:48;78.83;;;52.03;;
18228;SDS011;9239;50.932;3.142;2023-02-15T05:37:15;72.87;;;49.80;;
18228;SDS011;9239;50.932;3.142;2023-02-15T05:39:42;70.60;;;48.67;;
18228;SDS011;9239;50.932;3.142;2023-02-15T05:42:10;74.67;;;49.07;;
18228;SDS011;9239;50.932;3.142;2023-02-15T05:44:37;72.63;;;50.77;;
18228;SDS011;9239;50.932;3.142;2023-02-15T05:47:03;72.57;;;49.20;;
18228;SDS011;9239;50.932;3.142;2023-02-15T05:49:32;74.33;;;48.50;;
18228;SDS011;9239;50.932;3.142;2023-02-15T05:51:59;72.63;;;46.90;;
18228;SDS011;9239;50.932;3.142;2023-02-15T05:54:26;78.90;;;49.77;;
18228;SDS011;9239;50.932;3.142;2023-02-15T05:56:53;70.33;;;47.93;;
18228;SDS011;9239;50.932;3.142;2023-02-15T05:59:21;69.70;;;47.77;;
18228;SDS011;9239;50.932;3.142;2023-02-15T06:01:49;75.17;;;51.13;;
18228;SDS011;9239;50.932;3.142;2023-02-15T06:04:15;73.83;;;48.40;;
18228;SDS011;9239;50.932;3.142;2023-02-15T06:06:42;72.87;;;49.73;;
18228;SDS011;9239;50.932;3.142;2023-02-15T06:09:10;72.97;;;49.87;;
18228;SDS011;9239;50.932;3.142;2023-02-15T06:11:37;76.03;;;50.10;;
18228;SDS011;9239;50.932;3.142;2023-02-15T06:14:04;75.10;;;49.03;;
18228;SDS011;9239;50.932;3.142;2023-02-15T06:16:32;75.23;;;50.37;;
18228;SDS011;9239;50.932;3.142;2023-02-15T06:18:59;69.30;;;47.43;;
18228;SDS011;9239;50.932;3.142;2023-02-15T06:21:26;73.40;;;49.30;;
18228;SDS011;9239;50.932;3.142;2023-02-15T06:23:53;73.83;;;51.40;;
18228;SDS011;9239;50.932;3.142;2023-02-15T06:26:20;75.47;;;50.87;;
18228;SDS011;9239;50.932;3.142;2023-02-15T06:28:47;73.73;;;49.60;;
18228;SDS011;9239;50.932;3.142;2023-02-15T06:31:14;71.70;;;49.47;;
18228;SDS011;9239;50.932;3.142;2023-02-15T06:33:42;69.73;;;49.50;;
18228;SDS011;9239;50.932;3.142;2023-02-15T06:36:09;77.90;;;48.40;;
18228;SDS011;9239;50.932;3.142;2023-02-15T06:38:37;70.50;;;45.67;;
18228;SDS011;9239;50.932;3.142;2023-02-15T06:41:04;75.13;;;47.07;;
18228;SDS011;9239;50.932;3.142;2023-02-15T06:43:31;70.13;;;46.60;;
18228;SDS011;9239;50.932;3.142;2023-02-15T06:45:59;68.20;;;49.03;;
18228;SDS011;9239;50.932;3.142;2023-02-15T06:48:26;71.40;;;47.70;;
18228;SDS011;9239;50.932;3.142;2023-02-15T06:50:55;71.40;;;46.10;;
18228;SDS011;9239;50.932;3.142;2023-02-15T06:53:22;70.77;;;49.10;;
18228;SDS011;9239;50.932;3.142;2023-02-15T06:55:49;69.47;;;45.63;;
18228;SDS011;9239;50.932;3.142;2023-02-15T06:58:15;71.23;;;48.87;;
18228;SDS011;9239;50.932;3.142;2023-02-15T07:00:43;77.67;;;50.53;;
18228;SDS011;9239;50.932;3.142;2023-02-15T07:03:13;73.27;;;47.27;;
18228;SDS011;9239;50.932;3.142;2023-02-15T07:05:40;67.07;;;46.67;;
18228;SDS011;9239;50.932;3.142;2023-02-15T07:08:10;73.57;;;48.93;;
18228;SDS011;9239;50.932;3.142;2023-02-15T07:10:36;65.97;;;45.10;;
18228;SDS011;9239;50.932;3.142;2023-02-15T07:13:03;74.30;;;46.80;;
18228;SDS011;9239;50.932;3.142;2023-02-15T07:15:29;74.57;;;48.77;;
18228;SDS011;9239;50.932;3.142;2023-02-15T07:17:56;73.03;;;47.87;;
18228;SDS011;9239;50.932;3.142;2023-02-15T07:20:24;67.33;;;46.03;;
18228;SDS011;9239;50.932;3.142;2023-02-15T07:22:51;70.70;;;48.17;;
18228;SDS011;9239;50.932;3.142;2023-02-15T07:25:19;72.00;;;47.50;;
18228;SDS011;9239;50.932;3.142;2023-02-15T07:27:46;70.20;;;48.63;;
18228;SDS011;9239;50.932;3.142;2023-02-15T07:30:14;69.57;;;45.90;;
18228;SDS011;9239;50.932;3.142;2023-02-15T07:32:42;69.67;;;46.67;;
18228;SDS011;9239;50.932;3.142;2023-02-15T07:35:27;64.13;;;43.13;;
18228;SDS011;9239;50.932;3.142;2023-02-15T07:37:53;67.17;;;44.73;;
18228;SDS011;9239;50.932;3.142;2023-02-15T07:40:22;59.63;;;42.67;;
18228;SDS011;9239;50.932;3.142;2023-02-15T07:42:49;61.30;;;43.60;;
18228;SDS011;9239;50.932;3.142;2023-02-15T07:45:18;62.20;;;44.33;;
18228;SDS011;9239;50.932;3.142;2023-02-15T07:47:44;68.83;;;42.67;;
18228;SDS011;9239;50.932;3.142;2023-02-15T07:50:11;70.87;;;44.67;;
18228;SDS011;9239;50.932;3.142;2023-02-15T07:52:38;57.37;;;41.13;;
18228;SDS011;9239;50.932;3.142;2023-02-15T07:55:05;64.47;;;44.13;;
18228;SDS011;9239;50.932;3.142;2023-02-15T07:57:35;63.40;;;42.50;;
18228;SDS011;9239;50.932;3.142;2023-02-15T08:00:02;61.33;;;41.90;;
18228;SDS011;9239;50.932;3.142;2023-02-15T08:02:29;63.97;;;41.40;;
18228;SDS011;9239;50.932;3.142;2023-02-15T08:04:56;60.93;;;42.80;;
18228;SDS011;9239;50.932;3.142;2023-02-15T08:07:22;63.30;;;42.90;;
18228;SDS011;9239;50.932;3.142;2023-02-15T08:09:49;60.13;;;43.73;;
18228;SDS011;9239;50.932;3.142;2023-02-15T08:12:16;58.80;;;41.10;;
18228;SDS011;9239;50.932;3.142;2023-02-15T08:14:44;61.13;;;41.73;;
18228;SDS011;9239;50.932;3.142;2023-02-15T08:17:11;59.20;;;40.57;;
18228;SDS011;9239;50.932;3.142;2023-02-15T08:19:38;54.93;;;41.00;;
18228;SDS011;9239;50.932;3.142;2023-02-15T08:22:05;55.17;;;39.67;;
18228;SDS011;9239;50.932;3.142;2023-02-15T08:24:35;60.17;;;42.10;;
18228;SDS011;9239;50.932;3.142;2023-02-15T08:27:03;54.07;;;39.37;;
18228;SDS011;9239;50.932;3.142;2023-02-15T08:29:31;59.73;;;40.17;;
18228;SDS011;9239;50.932;3.142;2023-02-15T08:32:00;57.73;;;40.47;;
18228;SDS011;9239;50.932;3.142;2023-02-15T08:34:31;53.10;;;38.13;;
18228;SDS011;9239;50.932;3.142;2023-02-15T08:37:00;58.73;;;41.40;;
18228;SDS011;9239;50.932;3.142;2023-02-15T08:39:26;55.93;;;40.87;;
18228;SDS011;9239;50.932;3.142;2023-02-15T08:41:53;53.43;;;39.37;;
18228;SDS011;9239;50.932;3.142;2023-02-15T08:44:20;58.53;;;42.57;;
18228;SDS011;9239;50.932;3.142;2023-02-15T08:46:48;61.07;;;41.00;;
18228;SDS011;9239;50.932;3.142;2023-02-15T08:49:17;57.13;;;38.63;;
18228;SDS011;9239;50.932;3.142;2023-02-15T08:51:45;59.70;;;40.47;;
18228;SDS011;9239;50.932;3.142;2023-02-15T08:54:14;54.33;;;39.03;;
18228;SDS011;9239;50.932;3.142;2023-02-15T08:56:42;54.97;;;38.50;;
18228;SDS011;9239;50.932;3.142;2023-02-15T08:59:12;53.50;;;40.57;;
18228;SDS011;9239;50.932;3.142;2023-02-15T09:01:41;54.60;;;39.53;;
18228;SDS011;9239;50.932;3.142;2023-02-15T09:04:08;53.33;;;39.13;;
18228;SDS011;9239;50.932;3.142;2023-02-15T09:06:37;53.93;;;39.43;;
18228;SDS011;9239;50.932;3.142;2023-02-15T09:09:05;54.80;;;39.40;;
18228;SDS011;9239;50.932;3.142;2023-02-15T09:11:33;55.33;;;40.13;;
18228;SDS011;9239;50.932;3.142;2023-02-15T09:14:02;57.27;;;40.67;;
18228;SDS011;9239;50.932;3.142;2023-02-15T09:16:33;52.10;;;40.40;;
18228;SDS011;9239;50.932;3.142;2023-02-15T09:19:00;58.07;;;39.87;;
18228;SDS011;9239;50.932;3.142;2023-02-15T09:21:29;55.13;;;39.10;;
18228;SDS011;9239;50.932;3.142;2023-02-15T09:23:59;52.77;;;38.67;;
18228;SDS011;9239;50.932;3.142;2023-02-15T09:26:30;53.80;;;40.00;;
18228;SDS011;9239;50.932;3.142;2023-02-15T09:28:58;50.63;;;38.27;;
18228;SDS011;9239;50.932;3.142;2023-02-15T09:31:29;46.20;;;36.17;;
18228;SDS011;9239;50.932;3.142;2023-02-15T09:33:58;53.73;;;36.83;;
18228;SDS011;9239;50.932;3.142;2023-02-15T09:36:27;46.43;;;32.73;;
18228;SDS011;9239;50.932;3.142;2023-02-15T09:38:55;50.37;;;38.17;;
18228;SDS011;9239;50.932;3.142;2023-02-15T09:41:33;51.00;;;37.73;;
18228;SDS011;9239;50.932;3.142;2023-02-15T09:44:23;53.70;;;36.70;;
18228;SDS011;9239;50.932;3.142;2023-02-15T09:47:12;51.13;;;37.93;;
18228;SDS011;9239;50.932;3.142;2023-02-15T09:49:52;54.30;;;39.80;;
18228;SDS011;9239;50.932;3.142;2023-02-15T09:52:31;47.13;;;35.43;;
18228;SDS011;9239;50.932;3.142;2023-02-15T09:55:08;46.47;;;35.43;;
18228;SDS011;9239;50.932;3.142;2023-02-15T09:57:51;48.27;;;36.70;;
18228;SDS011;9239;50.932;3.142;2023-02-15T10:00:29;45.07;;;34.63;;
18228;SDS011;9239;50.932;3.142;2023-02-15T10:03:07;45.60;;;35.87;;
18228;SDS011;9239;50.932;3.142;2023-02-15T10:05:48;48.07;;;35.23;;
18228;SDS011;9239;50.932;3.142;2023-02-15T10:11:25;45.43;;;34.37;;
18228;SDS011;9239;50.932;3.142;2023-02-15T10:17:04;42.87;;;33.13;;
18228;SDS011;9239;50.932;3.142;2023-02-15T10:19:42;44.10;;;35.60;;
18228;SDS011;9239;50.932;3.142;2023-02-15T10:22:21;47.73;;;35.97;;
18228;SDS011;9239;50.932;3.142;2023-02-15T10:25:05;47.00;;;35.63;;
18228;SDS011;9239;50.932;3.142;2023-02-15T10:27:44;49.90;;;34.40;;
18228;SDS011;9239;50.932;3.142;2023-02-15T10:32:46;50.30;;;35.43;;
18228;SDS011;9239;50.932;3.142;2023-02-15T10:35:25;45.57;;;35.93;;
18228;SDS011;9239;50.932;3.142;2023-02-15T10:38:00;45.33;;;34.70;;
18228;SDS011;9239;50.932;3.142;2023-02-15T10:40:45;46.23;;;36.13;;
18228;SDS011;9239;50.932;3.142;2023-02-15T10:43:28;49.83;;;35.33;;
18228;SDS011;9239;50.932;3.142;2023-02-15T10:46:10;47.23;;;36.20;;
18228;SDS011;9239;50.932;3.142;2023-02-15T10:48:59;48.43;;;36.73;;
18228;SDS011;9239;50.932;3.142;2023-02-15T10:51:39;42.27;;;34.60;;
18228;SDS011;9239;50.932;3.142;2023-02-15T10:54:19;52.07;;;35.23;;
18228;SDS011;9239;50.932;3.142;2023-02-15T10:57:01;44.77;;;35.53;;
18228;SDS011;9239;50.932;3.142;2023-02-15T10:59:38;42.83;;;35.33;;
18228;SDS011;9239;50.932;3.142;2023-02-15T11:02:20;42.83;;;33.73;;
18228;SDS011;9239;50.932;3.142;2023-02-15T11:05:00;44.37;;;33.90;;
18228;SDS011;9239;50.932;3.142;2023-02-15T11:07:43;40.27;;;34.20;;
18228;SDS011;9239;50.932;3.142;2023-02-15T11:10:14;45.27;;;33.17;;
18228;SDS011;9239;50.932;3.142;2023-02-15T11:12:51;43.37;;;34.13;;
18228;SDS011;9239;50.932;3.142;2023-02-15T11:15:19;46.43;;;33.83;;
18228;SDS011;9239;50.932;3.142;2023-02-15T11:17:55;41.67;;;34.27;;
18228;SDS011;9239;50.932;3.142;2023-02-15T11:20:27;43.93;;;33.43;;
18228;SDS011;9239;50.932;3.142;2023-02-15T11:22:57;39.53;;;33.23;;
18228;SDS011;9239;50.932;3.142;2023-02-15T11:25:28;46.00;;;34.93;;
18228;SDS011;9239;50.932;3.142;2023-02-15T11:27:56;42.87;;;32.93;;
18228;SDS011;9239;50.932;3.142;2023-02-15T11:30:27;41.17;;;32.23;;
18228;SDS011;9239;50.932;3.142;2023-02-15T11:33:00;38.20;;;34.03;;
18228;SDS011;9239;50.932;3.142;2023-02-15T11:35:32;42.90;;;33.63;;
18228;SDS011;9239;50.932;3.142;2023-02-15T11:38:05;43.47;;;33.50;;
18228;SDS011;9239;50.932;3.142;2023-02-15T11:40:40;45.83;;;35.87;;
18228;SDS011;9239;50.932;3.142;2023-02-15T11:43:13;43.83;;;34.23;;
18228;SDS011;9239;50.932;3.142;2023-02-15T11:45:45;42.90;;;34.03;;
18228;SDS011;9239;50.932;3.142;2023-02-15T11:48:13;45.37;;;35.67;;
18228;SDS011;9239;50.932;3.142;2023-02-15T11:50:41;56.30;;;35.63;;
18228;SDS011;9239;50.932;3.142;2023-02-15T11:53:10;42.73;;;33.43;;
18228;SDS011;9239;50.932;3.142;2023-02-15T11:55:39;42.30;;;33.70;;
18228;SDS011;9239;50.932;3.142;2023-02-15T11:58:09;45.20;;;35.10;;
18228;SDS011;9239;50.932;3.142;2023-02-15T12:00:43;40.40;;;32.57;;
18228;SDS011;9239;50.932;3.142;2023-02-15T12:03:14;47.13;;;33.43;;
18228;SDS011;9239;50.932;3.142;2023-02-15T12:05:45;48.63;;;34.87;;
18228;SDS011;9239;50.932;3.142;2023-02-15T12:08:17;43.20;;;32.03;;
18228;SDS011;9239;50.932;3.142;2023-02-15T12:10:53;37.80;;;31.83;;
18228;SDS011;9239;50.932;3.142;2023-02-15T12:13:26;39.80;;;33.60;;
18228;SDS011;9239;50.932;3.142;2023-02-15T12:15:54;41.43;;;34.27;;
18228;SDS011;9239;50.932;3.142;2023-02-15T12:18:33;48.30;;;34.63;;
18228;SDS011;9239;50.932;3.142;2023-02-15T12:21:03;42.67;;;34.80;;
18228;SDS011;9239;50.932;3.142;2023-02-15T12:23:34;41.80;;;35.33;;
18228;SDS011;9239;50.932;3.142;2023-02-15T12:26:07;47.13;;;36.73;;
18228;SDS011;9239;50.932;3.142;2023-02-15T12:28:35;44.77;;;34.83;;
18228;SDS011;9239;50.932;3.142;2023-02-15T12:31:07;45.50;;;35.87;;
18228;SDS011;9239;50.932;3.142;2023-02-15T12:33:45;39.60;;;34.00;;
18228;SDS011;9239;50.932;3.142;2023-02-15T12:36:12;43.07;;;35.10;;
18228;SDS011;9239;50.932;3.142;2023-02-15T12:38:48;44.37;;;35.70;;
18228;SDS011;9239;50.932;3.142;2023-02-15T12:41:31;51.20;;;36.37;;
18228;SDS011;9239;50.932;3.142;2023-02-15T12:44:05;41.87;;;34.77;;
18228;SDS011;9239;50.932;3.142;2023-02-15T12:46:33;45.33;;;31.70;;
18228;SDS011;9239;50.932;3.142;2023-02-15T12:49:11;40.20;;;31.20;;
18228;SDS011;9239;50.932;3.142;2023-02-15T12:51:48;39.87;;;31.23;;
18228;SDS011;9239;50.932;3.142;2023-02-15T12:54:38;38.10;;;32.77;;
18228;SDS011;9239;50.932;3.142;2023-02-15T12:59:55;39.90;;;30.67;;
18228;SDS011;9239;50.932;3.142;2023-02-15T13:02:24;45.53;;;32.70;;
18228;SDS011;9239;50.932;3.142;2023-02-15T13:04:55;35.20;;;31.40;;
18228;SDS011;9239;50.932;3.142;2023-02-15T13:07:30;43.00;;;33.13;;
18228;SDS011;9239;50.932;3.142;2023-02-15T13:09:57;37.43;;;31.37;;
18228;SDS011;9239;50.932;3.142;2023-02-15T13:12:25;42.47;;;35.17;;
18228;SDS011;9239;50.932;3.142;2023-02-15T13:14:56;38.97;;;32.70;;
18228;SDS011;9239;50.932;3.142;2023-02-15T13:17:27;42.67;;;35.57;;
18228;SDS011;9239;50.932;3.142;2023-02-15T13:20:00;39.77;;;31.97;;
18228;SDS011;9239;50.932;3.142;2023-02-15T13:22:31;38.07;;;31.73;;
18228;SDS011;9239;50.932;3.142;2023-02-15T13:25:09;40.13;;;32.10;;
18228;SDS011;9239;50.932;3.142;2023-02-15T13:27:39;39.33;;;33.30;;
18228;SDS011;9239;50.932;3.142;2023-02-15T13:30:16;39.17;;;30.63;;
18228;SDS011;9239;50.932;3.142;2023-02-15T13:32:48;44.23;;;34.03;;
18228;SDS011;9239;50.932;3.142;2023-02-15T13:35:19;39.43;;;30.97;;
18228;SDS011;9239;50.932;3.142;2023-02-15T13:38:00;39.57;;;30.97;;
18228;SDS011;9239;50.932;3.142;2023-02-15T13:40:35;38.17;;;31.37;;
18228;SDS011;9239;50.932;3.142;2023-02-15T13:43:12;38.70;;;30.70;;
18228;SDS011;9239;50.932;3.142;2023-02-15T13:45:53;43.57;;;32.40;;
18228;SDS011;9239;50.932;3.142;2023-02-15T13:48:30;41.30;;;32.00;;
18228;SDS011;9239;50.932;3.142;2023-02-15T13:51:09;40.97;;;31.63;;
18228;SDS011;9239;50.932;3.142;2023-02-15T13:53:56;42.23;;;33.27;;
18228;SDS011;9239;50.932;3.142;2023-02-15T13:56:45;39.70;;;31.50;;
18228;SDS011;9239;50.932;3.142;2023-02-15T13:59:25;36.23;;;31.03;;
18228;SDS011;9239;50.932;3.142;2023-02-15T14:02:15;38.33;;;30.73;;
18228;SDS011;9239;50.932;3.142;2023-02-15T14:08:03;34.20;;;29.27;;
18228;SDS011;9239;50.932;3.142;2023-02-15T14:10:38;37.70;;;31.13;;
18228;SDS011;9239;50.932;3.142;2023-02-15T14:16:27;39.43;;;31.43;;
18228;SDS011;9239;50.932;3.142;2023-02-15T14:19:04;41.23;;;31.43;;
18228;SDS011;9239;50.932;3.142;2023-02-15T14:21:41;36.93;;;31.53;;
18228;SDS011;9239;50.932;3.142;2023-02-15T14:24:17;40.40;;;31.93;;
18228;SDS011;9239;50.932;3.142;2023-02-15T14:26:52;37.90;;;32.93;;
18228;SDS011;9239;50.932;3.142;2023-02-15T14:29:28;39.43;;;31.33;;
18228;SDS011;9239;50.932;3.142;2023-02-15T14:32:08;37.77;;;31.07;;
18228;SDS011;9239;50.932;3.142;2023-02-15T14:34:42;37.87;;;33.17;;
18228;SDS011;9239;50.932;3.142;2023-02-15T14:37:13;39.73;;;33.70;;
18228;SDS011;9239;50.932;3.142;2023-02-15T14:39:51;39.90;;;33.07;;
18228;SDS011;9239;50.932;3.142;2023-02-15T14:42:43;39.10;;;33.13;;
18228;SDS011;9239;50.932;3.142;2023-02-15T14:45:21;41.10;;;32.00;;
18228;SDS011;9239;50.932;3.142;2023-02-15T14:47:55;40.40;;;33.13;;
18228;SDS011;9239;50.932;3.142;2023-02-15T14:50:39;39.87;;;32.17;;
18228;SDS011;9239;50.932;3.142;2023-02-15T14:53:15;42.17;;;31.03;;
18228;SDS011;9239;50.932;3.142;2023-02-15T14:55:47;39.13;;;32.00;;
18228;SDS011;9239;50.932;3.142;2023-02-15T14:58:54;42.50;;;32.17;;
18228;SDS011;9239;50.932;3.142;2023-02-15T15:01:27;38.03;;;31.07;;
18228;SDS011;9239;50.932;3.142;2023-02-15T15:03:56;36.03;;;30.70;;
18228;SDS011;9239;50.932;3.142;2023-02-15T15:06:29;35.80;;;31.37;;
18228;SDS011;9239;50.932;3.142;2023-02-15T15:08:58;38.23;;;31.43;;
18228;SDS011;9239;50.932;3.142;2023-02-15T15:11:44;37.47;;;29.53;;
18228;SDS011;9239;50.932;3.142;2023-02-15T15:17:12;40.47;;;33.50;;
18228;SDS011;9239;50.932;3.142;2023-02-15T15:19:59;42.30;;;31.93;;
18228;SDS011;9239;50.932;3.142;2023-02-15T15:22:33;35.20;;;31.37;;
18228;SDS011;9239;50.932;3.142;2023-02-15T15:25:02;38.13;;;30.83;;
18228;SDS011;9239;50.932;3.142;2023-02-15T15:27:47;36.70;;;31.03;;
18228;SDS011;9239;50.932;3.142;2023-02-15T15:36:22;38.97;;;33.70;;